CheckWX is a tool to help pilots better visualize weather data.  It is not intended as a substitute for an official pre-flight weather briefing.

00:31:58 UTC

KMTJ TAF
Montrose Regional Airport
Montrose, Colorado, USA
KMTJ 162320Z 1700/1724 32005KT P6SM SKC FM170200 16008KT P6SM SKC FM172000 32006KT P6SM SKC

Nov-17@
00:00 UTC

Nov-17 @ 00:00 UTC

Nov-17@
02:00 UTC

Nov-17 @ 02:00 UTC

KMTJ 162320Z 1700/1724 32005KT P6SM SKC
Wind
  • 320° at 5 KTS
Cloud Levels
  • Clear skies

Nov-17@
02:00 UTC

Nov-17 @ 02:00 UTC

Nov-17@
20:00 UTC

Nov-17 @ 20:00 UTC

FM170200 16008KT P6SM SKC

From

From Standard forecast or significant change

Wind
  • 160° at 8 KTS
Cloud Levels
  • Clear skies

Nov-17@
20:00 UTC

Nov-17 @ 20:00 UTC

Nov-18@
00:00 UTC

Nov-18 @ 00:00 UTC

FM172000 32006KT P6SM SKC

From

From Standard forecast or significant change

Wind
  • 320° at 6 KTS
Cloud Levels
  • Clear skies